< < Back
Terminal Aerodrome Forecast


Current Version              Previous Versions:   1  2  3  4  5  6  7  8  9  

Terminal Aerodrome Forecast

371
FTUS42 KMLB 262109 AAB
TAFMCO
TAF AMD
KMCO 262109Z 2621/2718 06011G18KT P6SM VCSH FEW025 SCT040 BKN080
     FM270000 04007KT P6SM FEW030 SCT080 BKN300
     FM271500 06011KT P6SM SCT035 BKN300=

Latest METAR

453
SAUS70 KWBC 270900 RRZ
MTRMCO
METAR KMCO 270753Z 03008KT 10SM OVC300 26/22 A2994 RMK AO2 SLP137
T02560222


USA.gov is the U.S. government's official web portal to all federal, state and local government web resources and services.